createdAt,value
2023-05-14T00:01:40.096Z,58.83
2023-05-14T00:04:06.956Z,55.47
2023-05-14T00:06:33.940Z,55.63
2023-05-14T00:09:00.794Z,54.15
2023-05-14T00:11:27.723Z,52.15
2023-05-14T00:13:54.512Z,51.58
2023-05-14T00:16:21.370Z,52.97
2023-05-14T00:18:48.205Z,51.25
2023-05-14T00:21:14.984Z,47.65
2023-05-14T00:23:41.775Z,45.22
2023-05-14T00:26:08.622Z,48.70
2023-05-14T00:28:35.581Z,48.38
2023-05-14T00:31:02.409Z,48.35
2023-05-14T00:33:29.261Z,46.42
2023-05-14T00:35:56.030Z,44.72
2023-05-14T00:38:24.262Z,45.50
2023-05-14T00:40:52.046Z,49.20
2023-05-14T00:43:22.754Z,47.88
2023-05-14T00:45:53.793Z,48.95
2023-05-14T00:48:21.825Z,41.75
2023-05-14T00:50:50.748Z,41.20
2023-05-14T00:53:19.269Z,40.65
2023-05-14T00:55:48.714Z,38.10
2023-05-14T00:58:15.770Z,37.78
2023-05-14T01:00:42.842Z,34.58
2023-05-14T01:03:09.852Z,32.88
2023-05-14T01:06:01.598Z,34.88
2023-05-14T01:08:40.629Z,32.72
2023-05-14T01:11:12.782Z,32.13
2023-05-14T01:13:45.623Z,31.55
2023-05-14T01:16:14.566Z,36.58
2023-05-14T01:18:44.106Z,30.88
2023-05-14T01:21:43.185Z,37.88
2023-05-14T01:24:10.096Z,42.67
2023-05-14T01:26:37.696Z,43.55
2023-05-14T01:29:13.262Z,47.30
2023-05-14T01:31:43.806Z,48.05
2023-05-14T01:34:12.694Z,60.75
2023-05-14T01:36:41.117Z,55.08
2023-05-14T01:39:11.287Z,57.50
2023-05-14T01:41:39.506Z,62.53
2023-05-14T01:44:08.801Z,73.57
2023-05-14T01:46:35.718Z,82.78
2023-05-14T01:49:02.644Z,65.65
2023-05-14T01:51:29.619Z,69.55
2023-05-14T01:53:56.467Z,71.07
2023-05-14T01:56:24.175Z,88.43
2023-05-14T01:58:50.957Z,72.35
2023-05-14T02:01:17.713Z,72.43
2023-05-14T02:03:44.584Z,73.78
2023-05-14T02:06:11.589Z,78.18
2023-05-14T02:08:38.382Z,80.53
2023-05-14T02:11:05.276Z,94.47
2023-05-14T02:13:32.212Z,79.93
2023-05-14T02:15:59.015Z,82.35
2023-05-14T02:18:25.898Z,80.18
2023-05-14T02:20:52.715Z,84.05
2023-05-14T02:23:20.616Z,84.93
2023-05-14T02:25:52.537Z,78.30
2023-05-14T02:28:19.295Z,79.70
2023-05-14T02:30:46.150Z,86.78
2023-05-14T02:33:13.094Z,88.13
2023-05-14T02:35:39.952Z,83.78
2023-05-14T02:38:06.876Z,84.45
2023-05-14T02:40:33.727Z,99.85
2023-05-14T02:43:00.489Z,89.55
2023-05-14T02:45:27.354Z,88.50
2023-05-14T02:47:54.157Z,92.70
2023-05-14T02:50:21.126Z,94.28
2023-05-14T02:52:48.077Z,86.03
2023-05-14T02:55:14.827Z,91.15
2023-05-14T02:57:41.616Z,88.32
2023-05-14T03:00:09.181Z,89.60
2023-05-14T03:02:36.538Z,96.88
2023-05-14T03:05:04.103Z,89.05
2023-05-14T03:07:30.875Z,90.03
2023-05-14T03:09:57.841Z,92.85
2023-05-14T03:12:24.731Z,96.50
2023-05-14T03:14:54.284Z,94.35
2023-05-14T03:17:21.105Z,87.60
2023-05-14T03:19:47.938Z,90.88
2023-05-14T03:22:14.798Z,99.45
2023-05-14T03:24:41.612Z,90.75
2023-05-14T03:27:08.380Z,86.57
2023-05-14T03:29:35.445Z,90.13
2023-05-14T03:32:02.287Z,83.45
2023-05-14T03:34:29.095Z,88.85
2023-05-14T03:36:55.903Z,88.25
2023-05-14T03:39:22.724Z,82.78
2023-05-14T03:41:49.546Z,94.18
2023-05-14T03:44:16.489Z,87.18
2023-05-14T03:46:43.277Z,82.55
2023-05-14T03:49:10.137Z,81.90
2023-05-14T03:51:36.910Z,84.10
2023-05-14T03:54:03.829Z,82.28
2023-05-14T03:56:30.596Z,80.75
2023-05-14T03:58:57.381Z,79.60
2023-05-14T04:01:24.342Z,75.82
2023-05-14T04:03:51.340Z,75.78
2023-05-14T04:06:18.309Z,74.43
2023-05-14T04:08:45.269Z,77.78
2023-05-14T04:11:12.097Z,76.72
2023-05-14T04:13:38.976Z,72.28
2023-05-14T04:16:06.174Z,72.53
2023-05-14T04:18:35.340Z,74.60
2023-05-14T04:21:02.716Z,69.07
2023-05-14T04:23:31.750Z,71.53
2023-05-14T04:25:59.261Z,69.15
2023-05-14T04:28:26.151Z,68.60
2023-05-14T04:30:53.502Z,65.65
2023-05-14T04:33:20.382Z,63.47
2023-05-14T04:35:47.166Z,63.97
2023-05-14T04:38:14.563Z,65.20
2023-05-14T04:40:44.258Z,71.47
2023-05-14T04:43:11.103Z,64.45
2023-05-14T04:45:37.874Z,61.88
2023-05-14T04:48:05.982Z,59.30
2023-05-14T04:50:32.825Z,52.60
2023-05-14T04:52:59.720Z,56.22
2023-05-14T04:55:27.971Z,59.20
2023-05-14T04:57:54.957Z,50.45
2023-05-14T05:00:22.346Z,52.63
2023-05-14T05:02:49.534Z,55.08
2023-05-14T05:05:16.351Z,48.45
2023-05-14T05:07:43.117Z,54.15
2023-05-14T05:10:10.140Z,55.60
2023-05-14T05:12:36.933Z,46.85
2023-05-14T05:15:04.182Z,48.78
2023-05-14T05:17:31.214Z,61.65
2023-05-14T05:19:58.078Z,48.42
2023-05-14T05:22:24.972Z,48.08
2023-05-14T05:24:51.716Z,45.58
2023-05-14T05:27:18.597Z,48.88
2023-05-14T05:29:46.297Z,42.38
2023-05-14T05:32:13.359Z,46.22
2023-05-14T05:34:41.848Z,46.30
2023-05-14T05:37:12.675Z,53.05
2023-05-14T05:39:39.883Z,55.47
2023-05-14T05:42:07.171Z,42.88
2023-05-14T05:44:33.968Z,45.83
2023-05-14T05:47:00.881Z,45.67
2023-05-14T05:49:27.991Z,43.00
2023-05-14T05:51:54.801Z,44.97
2023-05-14T05:54:22.984Z,43.00
2023-05-14T05:56:49.752Z,45.25
2023-05-14T05:59:16.522Z,42.95
2023-05-14T06:01:43.640Z,43.70
2023-05-14T06:04:12.026Z,43.45
2023-05-14T06:06:38.812Z,40.83
2023-05-14T06:09:07.071Z,41.38
2023-05-14T06:11:33.854Z,42.40
2023-05-14T06:14:00.665Z,40.67
2023-05-14T06:16:27.751Z,41.13
2023-05-14T06:18:55.522Z,41.97
2023-05-14T06:21:22.444Z,40.53
2023-05-14T06:23:49.394Z,39.00
2023-05-14T06:26:16.182Z,34.83
2023-05-14T06:28:42.926Z,35.60
2023-05-14T06:31:09.705Z,33.65
2023-05-14T06:33:36.466Z,34.20
2023-05-14T06:36:06.938Z,38.20
2023-05-14T06:38:33.774Z,32.78
2023-05-14T06:41:00.561Z,32.55
2023-05-14T06:43:27.467Z,26.02
2023-05-14T06:45:54.596Z,26.13
2023-05-14T06:48:21.585Z,34.70
2023-05-14T06:50:49.318Z,102.68
2023-05-14T06:53:16.495Z,28.45
2023-05-14T06:55:43.462Z,25.35
2023-05-14T06:58:10.544Z,24.42
2023-05-14T07:00:37.414Z,20.63
2023-05-14T07:03:04.426Z,20.00
2023-05-14T07:05:31.461Z,25.35
2023-05-14T07:07:58.378Z,20.95
2023-05-14T07:10:25.637Z,17.48
2023-05-14T07:12:52.691Z,21.85
2023-05-14T07:15:19.813Z,17.98
2023-05-14T07:17:46.765Z,28.40
2023-05-14T07:20:13.783Z,14.30
2023-05-14T07:22:40.695Z,12.02
2023-05-14T07:25:07.945Z,11.65
2023-05-14T07:27:34.781Z,14.90
2023-05-14T07:30:01.669Z,12.75
2023-05-14T07:32:28.515Z,11.50
2023-05-14T07:34:55.983Z,12.15
2023-05-14T07:37:24.060Z,10.05
2023-05-14T07:39:51.136Z,12.57
2023-05-14T07:42:28.301Z,11.82
2023-05-14T07:44:59.001Z,14.13
2023-05-14T07:47:26.055Z,17.33
2023-05-14T07:49:57.206Z,16.05
2023-05-14T07:52:24.826Z,12.77
2023-05-14T07:54:55.185Z,13.38
2023-05-14T07:57:29.835Z,14.18
2023-05-14T07:59:56.963Z,23.83
2023-05-14T08:02:27.069Z,12.10
2023-05-14T08:04:54.208Z,10.77
2023-05-14T08:07:21.790Z,10.05
2023-05-14T08:09:51.190Z,12.80
2023-05-14T08:12:18.123Z,13.20
2023-05-14T08:14:44.968Z,9.65
2023-05-14T08:17:11.942Z,17.13
2023-05-14T08:19:38.891Z,10.65
2023-05-14T08:22:05.793Z,9.18
2023-05-14T08:24:32.754Z,9.30
2023-05-14T08:26:59.565Z,9.60
2023-05-14T08:29:26.346Z,14.07
2023-05-14T08:31:53.150Z,8.43
2023-05-14T08:34:20.098Z,34.95
2023-05-14T08:36:46.997Z,22.13
2023-05-14T08:39:13.848Z,16.17
2023-05-14T08:41:40.960Z,7.40
2023-05-14T08:44:12.394Z,8.60
2023-05-14T08:46:40.025Z,8.75
2023-05-14T08:49:40.993Z,8.40
2023-05-14T08:52:09.489Z,8.05
2023-05-14T08:54:36.634Z,12.23
2023-05-14T08:57:04.944Z,10.15
2023-05-14T08:59:31.948Z,10.07
2023-05-14T09:02:30.198Z,10.85
2023-05-14T09:04:59.723Z,7.32
2023-05-14T09:07:27.102Z,5.45
2023-05-14T09:09:54.685Z,52.35
2023-05-14T09:12:22.471Z,8.80
2023-05-14T09:14:50.618Z,7.32
2023-05-14T09:17:18.496Z,7.07
2023-05-14T09:19:49.133Z,8.43
2023-05-14T09:22:17.605Z,5.38
2023-05-14T09:24:44.982Z,5.05
2023-05-14T09:27:21.443Z,12.88
2023-05-14T09:29:48.675Z,9.02
2023-05-14T09:32:15.654Z,4.80
2023-05-14T09:34:42.525Z,20.65
2023-05-14T09:37:10.196Z,3.95
2023-05-14T09:39:38.086Z,4.43
2023-05-14T09:42:05.759Z,4.07
2023-05-14T09:44:32.592Z,5.53
2023-05-14T09:46:59.507Z,6.28
2023-05-14T09:49:26.365Z,9.13
2023-05-14T09:51:53.362Z,6.82
2023-05-14T09:54:20.238Z,7.32
2023-05-14T09:56:47.570Z,6.70
2023-05-14T09:59:14.465Z,4.55
2023-05-14T10:01:43.687Z,7.20
2023-05-14T10:04:11.903Z,3.85
2023-05-14T10:06:39.884Z,5.25
2023-05-14T10:09:12.710Z,3.63
2023-05-14T10:11:43.853Z,3.60
2023-05-14T10:14:37.989Z,5.07
2023-05-14T10:17:07.211Z,5.47
2023-05-14T10:19:35.404Z,3.75
2023-05-14T10:22:08.232Z,2.72
2023-05-14T10:24:35.882Z,3.10
2023-05-14T10:27:03.090Z,4.47
2023-05-14T10:29:37.805Z,2.85
2023-05-14T10:32:07.074Z,16.70
2023-05-14T10:34:44.018Z,3.88
2023-05-14T10:37:17.429Z,6.72
2023-05-14T10:39:50.149Z,2.60
2023-05-14T10:42:20.426Z,4.65
2023-05-14T10:44:58.622Z,2.75
2023-05-14T10:47:29.335Z,4.45
2023-05-14T10:49:57.961Z,2.08
2023-05-14T10:52:25.524Z,1.48
2023-05-14T10:54:59.139Z,5.50
2023-05-14T10:57:29.366Z,2.13
2023-05-14T10:59:57.667Z,6.80
2023-05-14T11:02:29.444Z,1.50
2023-05-14T11:07:32.605Z,1.85
2023-05-14T11:12:31.273Z,2.28
2023-05-14T11:14:59.542Z,4.25
2023-05-14T11:17:30.143Z,2.00
2023-05-14T11:19:57.921Z,14.52
2023-05-14T11:22:25.170Z,3.85
2023-05-14T11:24:52.349Z,11.25
2023-05-14T11:27:20.687Z,12.38
2023-05-14T11:29:48.531Z,7.45
2023-05-14T11:32:16.372Z,13.27
2023-05-14T11:34:47.204Z,6.38
2023-05-14T11:37:15.736Z,1.85
2023-05-14T11:39:52.875Z,1.40
2023-05-14T11:42:20.724Z,3.92
2023-05-14T11:44:49.113Z,2.20
2023-05-14T11:47:17.195Z,3.67
2023-05-14T11:49:44.482Z,2.67
2023-05-14T11:52:16.525Z,4.70
2023-05-14T11:54:44.015Z,1.40
2023-05-14T11:57:13.234Z,345.67
2023-05-14T11:59:40.540Z,7.93
2023-05-14T12:02:12.561Z,1.65
2023-05-14T12:04:40.549Z,3.22
2023-05-14T12:07:12.694Z,2.80
2023-05-14T12:09:49.686Z,3.30
2023-05-14T12:12:21.869Z,2.60
2023-05-14T12:14:49.846Z,1.30
2023-05-14T12:17:18.247Z,7.15
2023-05-14T12:19:46.810Z,2.55
2023-05-14T12:22:23.468Z,5.47
2023-05-14T12:24:57.900Z,1.45
2023-05-14T12:27:26.722Z,6.55
2023-05-14T12:30:27.331Z,10.00
2023-05-14T12:32:53.149Z,3.20
2023-05-14T12:35:21.585Z,1.20
2023-05-14T12:37:48.475Z,1.63
2023-05-14T12:40:15.379Z,1.00
2023-05-14T12:42:42.229Z,3.15
2023-05-14T12:45:09.251Z,0.90
2023-05-14T12:47:37.203Z,0.90
2023-05-14T12:50:05.108Z,1.25
2023-05-14T12:52:39.627Z,9.95
2023-05-14T12:55:09.070Z,1.27
2023-05-14T12:57:58.110Z,1.17
2023-05-14T13:00:25.133Z,1.00
2023-05-14T13:02:52.154Z,2.38
2023-05-14T13:05:18.955Z,1.17
2023-05-14T13:07:45.862Z,2.10
2023-05-14T13:10:12.788Z,0.73
2023-05-14T13:12:39.703Z,4.72
2023-05-14T13:15:07.087Z,3.92
2023-05-14T13:17:33.979Z,1.27
2023-05-14T13:20:00.978Z,1.17
2023-05-14T13:22:27.804Z,1.30
2023-05-14T13:24:54.602Z,3.05
2023-05-14T13:27:21.568Z,2.88
2023-05-14T13:29:48.387Z,1.42
2023-05-14T13:32:15.439Z,1.02
2023-05-14T13:34:44.028Z,2.05
2023-05-14T13:37:11.261Z,1.10
2023-05-14T13:39:38.986Z,0.60
2023-05-14T13:42:06.866Z,1.38
2023-05-14T13:44:33.720Z,1.63
2023-05-14T13:47:00.515Z,0.85
2023-05-14T13:49:27.289Z,63.90
2023-05-14T13:51:54.084Z,1.50
2023-05-14T13:54:20.884Z,3.33
2023-05-14T13:56:47.663Z,2.35
2023-05-14T13:59:15.210Z,0.70
2023-05-14T14:01:43.336Z,0.80
2023-05-14T14:04:12.324Z,0.80
2023-05-14T14:06:39.646Z,5.05
2023-05-14T14:09:06.517Z,2.35
2023-05-14T14:11:33.789Z,13.00
2023-05-14T14:14:00.576Z,3.50
2023-05-14T14:16:27.387Z,0.80
2023-05-14T14:18:54.182Z,0.70
2023-05-14T14:21:21.138Z,3.67
2023-05-14T14:23:50.068Z,0.57
2023-05-14T14:26:16.844Z,0.68
2023-05-14T14:28:43.656Z,0.70
2023-05-14T14:31:30.793Z,3.50
2023-05-14T14:33:57.643Z,0.90
2023-05-14T14:36:24.566Z,1.67
2023-05-14T14:38:51.538Z,0.60
2023-05-14T14:41:18.546Z,0.57
2023-05-14T14:43:45.493Z,0.85
2023-05-14T14:46:29.565Z,1.45
2023-05-14T14:48:56.557Z,5.32
2023-05-14T14:51:23.471Z,1.10
2023-05-14T14:53:50.404Z,1.63
2023-05-14T14:56:17.201Z,1.50
2023-05-14T14:58:45.429Z,1.52
2023-05-14T15:01:12.330Z,0.85
2023-05-14T15:03:39.221Z,1.42
2023-05-14T15:06:06.281Z,2.55
2023-05-14T15:08:33.297Z,2.67
2023-05-14T15:11:00.107Z,2.30
2023-05-14T15:13:27.190Z,2.20
2023-05-14T15:15:54.036Z,2.38
2023-05-14T15:18:21.154Z,2.40
2023-05-14T15:20:48.213Z,0.93
2023-05-14T15:23:15.004Z,33.13
2023-05-14T15:25:41.780Z,1.42
2023-05-14T15:28:08.761Z,6.03
2023-05-14T15:30:35.743Z,3.33
2023-05-14T15:33:02.808Z,2.17
2023-05-14T15:35:29.734Z,1.25
2023-05-14T15:37:59.993Z,2.35
2023-05-14T15:40:27.755Z,2.80
2023-05-14T15:42:54.700Z,4.65
2023-05-14T15:45:21.868Z,13.95
2023-05-14T15:47:48.725Z,2.50
2023-05-14T15:50:15.596Z,1.45
2023-05-14T15:52:42.491Z,2.80
2023-05-14T15:55:10.008Z,2.80
2023-05-14T15:57:36.859Z,2.17
2023-05-14T16:00:14.452Z,1.65
2023-05-14T16:02:41.676Z,7.38
2023-05-14T16:05:29.254Z,3.35
2023-05-14T16:07:56.101Z,1.98
2023-05-14T16:10:23.271Z,3.13
2023-05-14T16:12:50.583Z,7.05
2023-05-14T16:15:17.463Z,1.67
2023-05-14T16:17:44.417Z,1.75
2023-05-14T16:20:12.715Z,7.90
2023-05-14T16:22:39.537Z,6.38
2023-05-14T16:25:06.841Z,2.30
2023-05-14T16:27:34.522Z,1.90
2023-05-14T16:30:25.250Z,1.45
2023-05-14T16:32:52.484Z,1.60
2023-05-14T16:35:27.522Z,3.50
2023-05-14T16:37:54.609Z,1.52
2023-05-14T16:40:23.343Z,7.10
2023-05-14T16:42:51.334Z,1.75
2023-05-14T16:45:18.189Z,2.38
2023-05-14T16:47:45.370Z,29.83
2023-05-14T16:50:12.221Z,3.95
2023-05-14T16:52:39.016Z,5.18
2023-05-14T16:55:06.246Z,17.80
2023-05-14T16:57:34.268Z,6.60
2023-05-14T17:00:06.235Z,1.00
2023-05-14T17:02:33.721Z,5.35
2023-05-14T17:05:01.733Z,0.82
2023-05-14T17:07:28.576Z,4.18
2023-05-14T17:09:55.461Z,3.00
2023-05-14T17:12:23.658Z,2.13
2023-05-14T17:14:50.505Z,3.40
2023-05-14T17:17:17.328Z,1.80
2023-05-14T17:19:45.613Z,11.20
2023-05-14T17:22:12.572Z,1.50
2023-05-14T17:24:39.325Z,1.38
2023-05-14T17:27:07.321Z,0.95
2023-05-14T17:29:34.091Z,1.35
2023-05-14T17:32:23.477Z,1.20
2023-05-14T17:35:07.056Z,3.38
2023-05-14T17:37:34.039Z,1.80
2023-05-14T17:40:00.801Z,3.33
2023-05-14T17:42:27.557Z,4.65
2023-05-14T17:44:54.457Z,2.55
2023-05-14T17:47:23.282Z,3.05
2023-05-14T17:49:51.193Z,2.20
2023-05-14T17:52:18.032Z,4.15
2023-05-14T17:54:44.835Z,4.28
2023-05-14T17:57:11.716Z,7.60
2023-05-14T17:59:38.458Z,23.17
2023-05-14T18:02:05.768Z,4.40
2023-05-14T18:04:32.527Z,5.00
2023-05-14T18:07:01.454Z,26.58
2023-05-14T18:09:29.400Z,3.88
2023-05-14T18:11:57.018Z,5.15
2023-05-14T18:14:23.966Z,3.17
2023-05-14T18:16:51.252Z,1.80
2023-05-14T18:19:18.415Z,2.75
2023-05-14T18:21:48.206Z,3.72
2023-05-14T18:24:15.201Z,4.88
2023-05-14T18:26:42.340Z,2.47
2023-05-14T18:29:09.222Z,2.20
2023-05-14T18:31:36.264Z,1.80
2023-05-14T18:34:03.160Z,3.15
2023-05-14T18:36:29.945Z,2.45
2023-05-14T18:38:56.814Z,1.60
2023-05-14T18:41:23.632Z,1.70
2023-05-14T18:43:50.382Z,1.98
2023-05-14T18:46:17.301Z,4.45
2023-05-14T18:48:44.165Z,1.45
2023-05-14T18:51:12.394Z,1.80
2023-05-14T18:53:39.194Z,1.33
2023-05-14T18:56:06.045Z,3.92
2023-05-14T18:58:32.819Z,2.33
2023-05-14T19:00:59.634Z,2.55
2023-05-14T19:03:26.730Z,4.35
2023-05-14T19:05:54.294Z,3.08
2023-05-14T19:08:21.225Z,2.05
2023-05-14T19:10:48.593Z,4.30
2023-05-14T19:13:18.308Z,3.70
2023-05-14T19:15:45.145Z,5.70
2023-05-14T19:18:13.018Z,4.57
2023-05-14T19:20:39.905Z,5.25
2023-05-14T19:23:06.759Z,5.40
2023-05-14T19:25:34.024Z,7.28
2023-05-14T19:28:03.666Z,6.53
2023-05-14T19:30:31.137Z,2.95
2023-05-14T19:32:57.953Z,6.03
2023-05-14T19:35:25.191Z,5.25
2023-05-14T19:37:52.186Z,5.95
2023-05-14T19:40:19.206Z,3.92
2023-05-14T19:42:46.103Z,8.43
2023-05-14T19:45:14.169Z,3.33
2023-05-14T19:47:42.930Z,7.80
2023-05-14T19:50:10.284Z,5.10
2023-05-14T19:52:37.157Z,5.10
2023-05-14T19:55:04.202Z,5.22
2023-05-14T19:57:31.084Z,5.78
2023-05-14T19:59:58.169Z,3.63
2023-05-14T20:02:25.099Z,5.75
2023-05-14T20:04:55.474Z,8.55
2023-05-14T20:07:22.655Z,7.35
2023-05-14T20:09:49.425Z,8.15
2023-05-14T20:12:16.803Z,4.93
2023-05-14T20:14:44.010Z,8.60
2023-05-14T20:17:10.914Z,5.25
2023-05-14T20:19:37.802Z,8.25
2023-05-14T20:22:04.789Z,4.93
2023-05-14T20:24:31.573Z,7.25
2023-05-14T20:26:58.411Z,8.88
2023-05-14T20:29:25.266Z,6.47
2023-05-14T20:31:52.307Z,17.48
2023-05-14T20:34:19.275Z,14.05
2023-05-14T20:36:46.111Z,7.65
2023-05-14T20:39:12.907Z,11.65
2023-05-14T20:41:39.751Z,8.90
2023-05-14T20:44:06.500Z,8.95
2023-05-14T20:46:33.374Z,10.57
2023-05-14T20:49:02.175Z,8.57
2023-05-14T20:51:29.185Z,7.88
2023-05-14T20:53:55.919Z,9.35
2023-05-14T20:56:22.725Z,11.00
2023-05-14T20:58:49.683Z,9.27
2023-05-14T21:01:16.617Z,12.75
2023-05-14T21:03:48.866Z,8.07
2023-05-14T21:06:15.827Z,8.35
2023-05-14T21:08:42.813Z,9.02
2023-05-14T21:11:09.591Z,9.68
2023-05-14T21:13:36.412Z,11.65
2023-05-14T21:16:03.403Z,10.65
2023-05-14T21:18:32.775Z,10.30
2023-05-14T21:20:59.695Z,14.48
2023-05-14T21:23:26.466Z,10.43
2023-05-14T21:25:54.826Z,10.75
2023-05-14T21:28:22.381Z,10.05
2023-05-14T21:30:50.608Z,14.05
2023-05-14T21:33:18.240Z,9.77
2023-05-14T21:35:45.009Z,12.48
2023-05-14T21:38:12.189Z,15.02
2023-05-14T21:40:38.976Z,7.47
2023-05-14T21:43:05.762Z,8.52
2023-05-14T21:45:32.522Z,9.18
2023-05-14T21:47:59.559Z,10.55
2023-05-14T21:50:26.996Z,9.32
2023-05-14T21:52:53.767Z,10.15
2023-05-14T21:55:20.664Z,13.57
2023-05-14T21:57:47.570Z,14.27
2023-05-14T22:00:18.545Z,12.95
2023-05-14T22:02:45.343Z,11.10
2023-05-14T22:05:12.159Z,9.80
2023-05-14T22:07:38.954Z,12.35
2023-05-14T22:10:06.157Z,12.85
2023-05-14T22:12:32.894Z,8.82
2023-05-14T22:14:59.706Z,8.63
2023-05-14T22:17:28.136Z,9.57
2023-05-14T22:19:55.040Z,10.18
2023-05-14T22:22:21.827Z,7.60
2023-05-14T22:24:48.602Z,15.40
2023-05-14T22:27:15.497Z,8.90
2023-05-14T22:29:42.291Z,7.10
2023-05-14T22:32:10.284Z,6.57
2023-05-14T22:34:37.600Z,8.02
2023-05-14T22:37:04.965Z,9.00
2023-05-14T22:39:31.726Z,10.68
2023-05-14T22:41:58.593Z,7.68
2023-05-14T22:44:26.316Z,9.63
2023-05-14T22:46:54.753Z,7.93
2023-05-14T22:49:21.578Z,16.73
2023-05-14T22:51:48.400Z,11.93
2023-05-14T22:54:15.138Z,10.43
2023-05-14T22:56:41.908Z,17.38
2023-05-14T22:59:08.699Z,10.23
2023-05-14T23:01:35.525Z,20.92
2023-05-14T23:04:02.538Z,11.57
2023-05-14T23:06:30.210Z,14.60
2023-05-14T23:08:57.023Z,26.02
2023-05-14T23:11:25.435Z,31.60
2023-05-14T23:13:52.457Z,69.00
2023-05-14T23:16:19.386Z,94.40
2023-05-14T23:18:46.216Z,91.40
2023-05-14T23:21:14.036Z,154.70
2023-05-14T23:23:40.797Z,140.48
2023-05-14T23:26:07.750Z,29.05
2023-05-14T23:28:34.541Z,24.25
2023-05-14T23:31:01.303Z,73.32
2023-05-14T23:33:28.168Z,248.75
2023-05-14T23:35:55.015Z,54.28
2023-05-14T23:38:21.814Z,43.40
2023-05-14T23:40:48.980Z,32.67
2023-05-14T23:43:15.892Z,242.02
2023-05-14T23:45:42.681Z,219.13
2023-05-14T23:48:09.554Z,213.60
2023-05-14T23:50:37.055Z,50.70
2023-05-14T23:53:03.970Z,33.33
2023-05-14T23:55:30.940Z,86.43
2023-05-14T23:57:57.706Z,115.75
